This is the latest recevied weather packets stored in our database for station/object KD7AWQ. If no packets are shown the sender has not sent any weather packets the latest 1 day(s).
| Time | Temp. | Humidity | Pressure | Rain* | Wind** | Luminosity | Snow |
|---|---|---|---|---|---|---|---|
| 1778054136 | 11.11° C | 53% | 1183.7 hPa | 0 mm | - | 0 W/m² | - |
| 1778053530 | 11.11° C | 51% | 1183.7 hPa | 0 mm | - | 0 W/m² | - |
| 1778053227 | 10.56° C | 54% | 1183.5 hPa | 0 mm | - | 0 W/m² | - |
| 1778052925 | 11.11° C | 55% | 1183.9 hPa | 0 mm | - | 0 W/m² | - |
| 1778052319 | 10.56° C | 54% | 1183.7 hPa | 0 mm | - | 0 W/m² | - |
| 1778051411 | 11.11° C | 51% | 1183.5 hPa | 0 mm | - | 0 W/m² | - |
| 1778050503 | 11.67° C | 51% | 1183.2 hPa | 0 mm | - | 0 W/m² | - |
| 1778049592 | 12.22° C | 47% | 1183.6 hPa | 0 mm | - | 0 W/m² | - |
| 1778049290 | 11.67° C | 52% | 1183.1 hPa | 0 mm | - | 0 W/m² | - |
| 1778048987 | 11.67° C | 52% | 1183.2 hPa | 0 mm | - | 0 W/m² | - |
| 1778048078 | 11.67° C | 52% | 1183.2 hPa | 0 mm | - | 0 W/m² | - |
| 1778046868 | 12.22° C | 50% | 1183.1 hPa | 0 mm | - | 0 W/m² | - |
| 1778046564 | 12.22° C | 50% | 1183 hPa | 0 mm | - | 0 W/m² | - |
| 1778045656 | 12.78° C | 47% | 1183 hPa | 0 mm | - | 0 W/m² | - |
| 1778045354 | 12.78° C | 47% | 1182.8 hPa | 0 mm | - | 0 W/m² | - |
| 1778044750 | 13.33° C | 46% | 1182.7 hPa | 0 mm | - | 0 W/m² | - |
| 1778044446 | 13.33° C | 45% | 1182.6 hPa | 0 mm | - | 0 W/m² | - |
| 1778044143 | 13.89° C | 45% | 1182.7 hPa | 0 mm | - | 0 W/m² | - |
| 1778043841 | 13.89° C | 44% | 1182.6 hPa | 0 mm | - | 0 W/m² | - |
| 1778043538 | 13.89° C | 43% | 1182.4 hPa | 0 mm | - | 0 W/m² | - |
| 1778043234 | 13.89° C | 43% | 1182.6 hPa | 0 mm | - | 0 W/m² | - |
| 1778042931 | 14.44° C | 43% | 1182.1 hPa | 0 mm | - | 0 W/m² | - |
| 1778042629 | 13.89° C | 43% | 1182.3 hPa | 0 mm | - | 0 W/m² | - |
| 1778042023 | 13.89° C | 43% | 1182.1 hPa | 0 mm | - | 0 W/m² | - |
| 1778041420 | 13.89° C | 43% | 1182 hPa | 0 mm | - | 0 W/m² | - |
* Rain latest hour (hover to see other rain measurements)
** Current wind speed in m/s (hover to see current wind gust speed)